sensor_id;sensor_type;location;lat;lon;timestamp;P1;durP1;ratioP1;P2;durP2;ratioP2
77061;SDS011;65989;51.686;5.138;2023-11-21T00:01:14;27.10;;;12.17;;
77061;SDS011;65989;51.686;5.138;2023-11-21T00:03:40;25.60;;;12.10;;
77061;SDS011;65989;51.686;5.138;2023-11-21T00:06:05;25.70;;;12.30;;
77061;SDS011;65989;51.686;5.138;2023-11-21T00:08:34;22.75;;;12.00;;
77061;SDS011;65989;51.686;5.138;2023-11-21T00:11:00;23.53;;;11.90;;
77061;SDS011;65989;51.686;5.138;2023-11-21T00:13:25;23.55;;;11.43;;
77061;SDS011;65989;51.686;5.138;2023-11-21T00:15:50;25.90;;;11.67;;
77061;SDS011;65989;51.686;5.138;2023-11-21T00:18:16;23.30;;;11.80;;
77061;SDS011;65989;51.686;5.138;2023-11-21T00:20:41;22.97;;;11.77;;
77061;SDS011;65989;51.686;5.138;2023-11-21T00:23:06;25.73;;;11.90;;
77061;SDS011;65989;51.686;5.138;2023-11-21T00:25:32;23.17;;;11.40;;
77061;SDS011;65989;51.686;5.138;2023-11-21T00:27:57;25.53;;;12.00;;
77061;SDS011;65989;51.686;5.138;2023-11-21T00:30:22;22.53;;;11.93;;
77061;SDS011;65989;51.686;5.138;2023-11-21T00:32:48;21.88;;;11.23;;
77061;SDS011;65989;51.686;5.138;2023-11-21T00:35:13;22.90;;;11.17;;
77061;SDS011;65989;51.686;5.138;2023-11-21T00:37:38;23.20;;;11.37;;
77061;SDS011;65989;51.686;5.138;2023-11-21T00:40:04;25.23;;;11.87;;
77061;SDS011;65989;51.686;5.138;2023-11-21T00:42:32;23.83;;;12.68;;
77061;SDS011;65989;51.686;5.138;2023-11-21T00:44:58;20.92;;;11.00;;
77061;SDS011;65989;51.686;5.138;2023-11-21T00:47:24;24.43;;;11.53;;
77061;SDS011;65989;51.686;5.138;2023-11-21T00:49:49;25.33;;;12.73;;
77061;SDS011;65989;51.686;5.138;2023-11-21T00:52:14;25.83;;;12.13;;
77061;SDS011;65989;51.686;5.138;2023-11-21T00:54:40;29.55;;;11.70;;
77061;SDS011;65989;51.686;5.138;2023-11-21T00:57:06;22.90;;;11.17;;
77061;SDS011;65989;51.686;5.138;2023-11-21T00:59:31;27.90;;;12.97;;
77061;SDS011;65989;51.686;5.138;2023-11-21T01:01:56;22.93;;;11.07;;
77061;SDS011;65989;51.686;5.138;2023-11-21T01:04:25;24.55;;;11.63;;
77061;SDS011;65989;51.686;5.138;2023-11-21T01:06:50;25.67;;;11.77;;
77061;SDS011;65989;51.686;5.138;2023-11-21T01:09:15;24.67;;;11.27;;
77061;SDS011;65989;51.686;5.138;2023-11-21T01:11:43;22.40;;;10.87;;
77061;SDS011;65989;51.686;5.138;2023-11-21T01:14:08;22.42;;;10.40;;
77061;SDS011;65989;51.686;5.138;2023-11-21T01:16:35;25.00;;;11.17;;
77061;SDS011;65989;51.686;5.138;2023-11-21T01:19:00;22.77;;;11.38;;
77061;SDS011;65989;51.686;5.138;2023-11-21T01:21:26;23.70;;;11.63;;
77061;SDS011;65989;51.686;5.138;2023-11-21T01:23:53;22.55;;;11.27;;
77061;SDS011;65989;51.686;5.138;2023-11-21T01:26:18;21.23;;;10.67;;
77061;SDS011;65989;51.686;5.138;2023-11-21T01:28:43;19.53;;;10.43;;
77061;SDS011;65989;51.686;5.138;2023-11-21T01:31:08;23.20;;;11.33;;
77061;SDS011;65989;51.686;5.138;2023-11-21T01:33:33;23.13;;;11.20;;
77061;SDS011;65989;51.686;5.138;2023-11-21T01:35:59;22.83;;;10.47;;
77061;SDS011;65989;51.686;5.138;2023-11-21T01:38:25;22.88;;;11.07;;
77061;SDS011;65989;51.686;5.138;2023-11-21T01:40:50;22.00;;;10.70;;
77061;SDS011;65989;51.686;5.138;2023-11-21T01:43:15;19.13;;;9.60;;
77061;SDS011;65989;51.686;5.138;2023-11-21T01:45:41;18.33;;;10.02;;
77061;SDS011;65989;51.686;5.138;2023-11-21T01:48:07;21.67;;;10.23;;
77061;SDS011;65989;51.686;5.138;2023-11-21T01:50:32;19.97;;;10.07;;
77061;SDS011;65989;51.686;5.138;2023-11-21T01:52:58;21.10;;;10.70;;
77061;SDS011;65989;51.686;5.138;2023-11-21T01:55:24;21.45;;;10.68;;
77061;SDS011;65989;51.686;5.138;2023-11-21T01:57:50;22.00;;;10.87;;
77061;SDS011;65989;51.686;5.138;2023-11-21T02:00:15;22.65;;;11.32;;
77061;SDS011;65989;51.686;5.138;2023-11-21T02:02:42;25.57;;;11.97;;
77061;SDS011;65989;51.686;5.138;2023-11-21T02:05:07;29.55;;;11.77;;
77061;SDS011;65989;51.686;5.138;2023-11-21T02:07:33;24.97;;;12.10;;
77061;SDS011;65989;51.686;5.138;2023-11-21T02:09:59;27.65;;;12.20;;
77061;SDS011;65989;51.686;5.138;2023-11-21T02:12:25;28.93;;;12.53;;
77061;SDS011;65989;51.686;5.138;2023-11-21T02:14:51;31.30;;;12.45;;
77061;SDS011;65989;51.686;5.138;2023-11-21T02:17:16;36.17;;;13.10;;
77061;SDS011;65989;51.686;5.138;2023-11-21T02:19:43;26.90;;;13.52;;
77061;SDS011;65989;51.686;5.138;2023-11-21T02:22:08;27.07;;;13.17;;
77061;SDS011;65989;51.686;5.138;2023-11-21T02:24:34;25.55;;;13.45;;
77061;SDS011;65989;51.686;5.138;2023-11-21T02:27:00;27.33;;;13.40;;
77061;SDS011;65989;51.686;5.138;2023-11-21T02:29:25;24.00;;;12.40;;
77061;SDS011;65989;51.686;5.138;2023-11-21T02:31:53;23.85;;;12.55;;
77061;SDS011;65989;51.686;5.138;2023-11-21T02:34:19;23.55;;;12.40;;
77061;SDS011;65989;51.686;5.138;2023-11-21T02:36:45;23.07;;;12.33;;
77061;SDS011;65989;51.686;5.138;2023-11-21T02:39:10;23.40;;;12.17;;
77061;SDS011;65989;51.686;5.138;2023-11-21T02:41:39;23.50;;;12.97;;
77061;SDS011;65989;51.686;5.138;2023-11-21T02:44:07;20.00;;;11.90;;
77061;SDS011;65989;51.686;5.138;2023-11-21T02:46:33;22.47;;;12.33;;
77061;SDS011;65989;51.686;5.138;2023-11-21T02:48:59;21.17;;;11.90;;
77061;SDS011;65989;51.686;5.138;2023-11-21T02:51:24;22.83;;;12.40;;
77061;SDS011;65989;51.686;5.138;2023-11-21T02:53:50;20.33;;;11.93;;
77061;SDS011;65989;51.686;5.138;2023-11-21T02:56:16;19.92;;;12.05;;
77061;SDS011;65989;51.686;5.138;2023-11-21T02:58:42;22.70;;;11.93;;
77061;SDS011;65989;51.686;5.138;2023-11-21T03:01:08;22.60;;;11.85;;
77061;SDS011;65989;51.686;5.138;2023-11-21T03:03:34;21.50;;;11.70;;
77061;SDS011;65989;51.686;5.138;2023-11-21T03:05:59;22.38;;;12.98;;
77061;SDS011;65989;51.686;5.138;2023-11-21T03:08:25;26.53;;;12.27;;
77061;SDS011;65989;51.686;5.138;2023-11-21T03:10:50;21.27;;;11.17;;
77061;SDS011;65989;51.686;5.138;2023-11-21T03:13:15;20.30;;;11.97;;
77061;SDS011;65989;51.686;5.138;2023-11-21T03:15:40;21.10;;;11.00;;
77061;SDS011;65989;51.686;5.138;2023-11-21T03:18:07;22.35;;;12.38;;
77061;SDS011;65989;51.686;5.138;2023-11-21T03:20:33;22.73;;;11.80;;
77061;SDS011;65989;51.686;5.138;2023-11-21T03:22:59;19.73;;;11.48;;
77061;SDS011;65989;51.686;5.138;2023-11-21T03:25:24;25.00;;;12.13;;
77061;SDS011;65989;51.686;5.138;2023-11-21T03:27:50;20.10;;;11.23;;
77061;SDS011;65989;51.686;5.138;2023-11-21T03:30:15;23.57;;;11.73;;
77061;SDS011;65989;51.686;5.138;2023-11-21T03:32:41;24.30;;;11.25;;
77061;SDS011;65989;51.686;5.138;2023-11-21T03:35:07;17.33;;;10.43;;
77061;SDS011;65989;51.686;5.138;2023-11-21T03:37:32;20.70;;;11.00;;
77061;SDS011;65989;51.686;5.138;2023-11-21T03:39:57;19.43;;;10.67;;
77061;SDS011;65989;51.686;5.138;2023-11-21T03:42:23;19.70;;;10.87;;
77061;SDS011;65989;51.686;5.138;2023-11-21T03:44:48;19.67;;;10.80;;
77061;SDS011;65989;51.686;5.138;2023-11-21T03:47:13;20.67;;;10.97;;
77061;SDS011;65989;51.686;5.138;2023-11-21T03:49:41;20.55;;;11.07;;
77061;SDS011;65989;51.686;5.138;2023-11-21T03:52:06;18.00;;;11.50;;
77061;SDS011;65989;51.686;5.138;2023-11-21T03:54:32;19.77;;;10.43;;
77061;SDS011;65989;51.686;5.138;2023-11-21T03:56:58;21.43;;;10.80;;
77061;SDS011;65989;51.686;5.138;2023-11-21T03:59:23;20.60;;;10.93;;
77061;SDS011;65989;51.686;5.138;2023-11-21T04:01:49;24.67;;;11.33;;
77061;SDS011;65989;51.686;5.138;2023-11-21T04:04:14;23.73;;;11.52;;
77061;SDS011;65989;51.686;5.138;2023-11-21T04:06:40;20.33;;;10.80;;
77061;SDS011;65989;51.686;5.138;2023-11-21T04:09:06;20.80;;;11.27;;
77061;SDS011;65989;51.686;5.138;2023-11-21T04:11:31;24.40;;;11.13;;
77061;SDS011;65989;51.686;5.138;2023-11-21T04:13:56;22.40;;;11.40;;
77061;SDS011;65989;51.686;5.138;2023-11-21T04:16:21;24.13;;;11.57;;
77061;SDS011;65989;51.686;5.138;2023-11-21T04:18:47;21.10;;;10.93;;
77061;SDS011;65989;51.686;5.138;2023-11-21T04:21:13;19.58;;;10.95;;
77061;SDS011;65989;51.686;5.138;2023-11-21T04:23:38;20.23;;;10.93;;
77061;SDS011;65989;51.686;5.138;2023-11-21T04:26:04;19.27;;;11.70;;
77061;SDS011;65989;51.686;5.138;2023-11-21T04:28:30;24.20;;;11.00;;
77061;SDS011;65989;51.686;5.138;2023-11-21T04:30:55;19.33;;;10.30;;
77061;SDS011;65989;51.686;5.138;2023-11-21T04:33:20;19.57;;;11.17;;
77061;SDS011;65989;51.686;5.138;2023-11-21T04:35:46;20.53;;;11.43;;
77061;SDS011;65989;51.686;5.138;2023-11-21T04:38:11;22.40;;;11.07;;
77061;SDS011;65989;51.686;5.138;2023-11-21T04:40:37;21.23;;;11.13;;
77061;SDS011;65989;51.686;5.138;2023-11-21T04:43:02;26.00;;;12.03;;
77061;SDS011;65989;51.686;5.138;2023-11-21T04:45:29;22.73;;;11.77;;
77061;SDS011;65989;51.686;5.138;2023-11-21T04:47:54;25.90;;;12.07;;
77061;SDS011;65989;51.686;5.138;2023-11-21T04:50:19;21.10;;;11.23;;
77061;SDS011;65989;51.686;5.138;2023-11-21T04:52:45;18.45;;;10.57;;
77061;SDS011;65989;51.686;5.138;2023-11-21T04:55:10;21.30;;;12.13;;
77061;SDS011;65989;51.686;5.138;2023-11-21T04:57:36;22.13;;;11.37;;
77061;SDS011;65989;51.686;5.138;2023-11-21T05:00:01;24.75;;;13.07;;
77061;SDS011;65989;51.686;5.138;2023-11-21T05:02:30;27.67;;;12.97;;
77061;SDS011;65989;51.686;5.138;2023-11-21T05:04:56;26.23;;;12.57;;
77061;SDS011;65989;51.686;5.138;2023-11-21T05:07:22;26.53;;;12.80;;
77061;SDS011;65989;51.686;5.138;2023-11-21T05:09:47;25.60;;;12.70;;
77061;SDS011;65989;51.686;5.138;2023-11-21T05:12:12;28.17;;;12.53;;
77061;SDS011;65989;51.686;5.138;2023-11-21T05:14:38;31.57;;;12.40;;
77061;SDS011;65989;51.686;5.138;2023-11-21T05:17:03;26.67;;;12.47;;
77061;SDS011;65989;51.686;5.138;2023-11-21T05:19:29;31.67;;;12.95;;
77061;SDS011;65989;51.686;5.138;2023-11-21T05:21:54;27.03;;;13.13;;
77061;SDS011;65989;51.686;5.138;2023-11-21T05:24:19;35.10;;;14.83;;
77061;SDS011;65989;51.686;5.138;2023-11-21T05:26:45;30.90;;;13.93;;
77061;SDS011;65989;51.686;5.138;2023-11-21T05:29:10;31.03;;;13.90;;
77061;SDS011;65989;51.686;5.138;2023-11-21T05:31:36;29.73;;;14.30;;
77061;SDS011;65989;51.686;5.138;2023-11-21T05:34:01;32.13;;;15.50;;
77061;SDS011;65989;51.686;5.138;2023-11-21T05:36:26;31.58;;;14.95;;
77061;SDS011;65989;51.686;5.138;2023-11-21T05:38:52;37.47;;;15.53;;
77061;SDS011;65989;51.686;5.138;2023-11-21T05:41:17;43.30;;;15.80;;
77061;SDS011;65989;51.686;5.138;2023-11-21T05:43:42;35.90;;;15.50;;
77061;SDS011;65989;51.686;5.138;2023-11-21T05:46:08;40.17;;;15.70;;
77061;SDS011;65989;51.686;5.138;2023-11-21T05:48:34;36.90;;;16.33;;
77061;SDS011;65989;51.686;5.138;2023-11-21T05:51:02;36.88;;;15.43;;
77061;SDS011;65989;51.686;5.138;2023-11-21T05:53:27;39.67;;;16.97;;
77061;SDS011;65989;51.686;5.138;2023-11-21T05:55:52;35.77;;;14.97;;
77061;SDS011;65989;51.686;5.138;2023-11-21T05:58:17;44.40;;;16.83;;
77061;SDS011;65989;51.686;5.138;2023-11-21T06:00:43;35.07;;;16.23;;
77061;SDS011;65989;51.686;5.138;2023-11-21T06:03:08;30.17;;;15.47;;
77061;SDS011;65989;51.686;5.138;2023-11-21T06:05:33;42.17;;;16.27;;
77061;SDS011;65989;51.686;5.138;2023-11-21T06:07:59;34.53;;;15.10;;
77061;SDS011;65989;51.686;5.138;2023-11-21T06:10:25;35.60;;;14.75;;
77061;SDS011;65989;51.686;5.138;2023-11-21T06:12:51;30.10;;;14.93;;
77061;SDS011;65989;51.686;5.138;2023-11-21T06:15:16;29.52;;;15.40;;
77061;SDS011;65989;51.686;5.138;2023-11-21T06:17:44;31.27;;;15.57;;
77061;SDS011;65989;51.686;5.138;2023-11-21T06:20:10;32.90;;;15.70;;
77061;SDS011;65989;51.686;5.138;2023-11-21T06:22:39;29.02;;;15.25;;
77061;SDS011;65989;51.686;5.138;2023-11-21T06:25:05;38.65;;;15.73;;
77061;SDS011;65989;51.686;5.138;2023-11-21T06:27:43;32.13;;;14.50;;
77061;SDS011;65989;51.686;5.138;2023-11-21T06:30:12;33.30;;;14.85;;
77061;SDS011;65989;51.686;5.138;2023-11-21T06:32:38;29.65;;;14.93;;
77061;SDS011;65989;51.686;5.138;2023-11-21T06:35:05;29.95;;;14.93;;
77061;SDS011;65989;51.686;5.138;2023-11-21T06:37:31;29.67;;;15.10;;
77061;SDS011;65989;51.686;5.138;2023-11-21T06:39:57;31.05;;;14.73;;
77061;SDS011;65989;51.686;5.138;2023-11-21T06:42:23;28.58;;;15.20;;
77061;SDS011;65989;51.686;5.138;2023-11-21T06:44:49;34.77;;;14.70;;
77061;SDS011;65989;51.686;5.138;2023-11-21T06:47:16;36.28;;;15.00;;
77061;SDS011;65989;51.686;5.138;2023-11-21T06:49:42;31.50;;;14.70;;
77061;SDS011;65989;51.686;5.138;2023-11-21T06:52:07;31.58;;;14.45;;
77061;SDS011;65989;51.686;5.138;2023-11-21T06:54:33;28.77;;;14.07;;
77061;SDS011;65989;51.686;5.138;2023-11-21T06:56:59;30.40;;;13.38;;
77061;SDS011;65989;51.686;5.138;2023-11-21T06:59:24;32.30;;;14.13;;
77061;SDS011;65989;51.686;5.138;2023-11-21T07:01:49;30.00;;;14.07;;
77061;SDS011;65989;51.686;5.138;2023-11-21T07:04:15;33.03;;;14.43;;
77061;SDS011;65989;51.686;5.138;2023-11-21T07:06:40;28.80;;;13.40;;
77061;SDS011;65989;51.686;5.138;2023-11-21T07:09:05;30.40;;;13.55;;
77061;SDS011;65989;51.686;5.138;2023-11-21T07:11:33;29.38;;;14.65;;
77061;SDS011;65989;51.686;5.138;2023-11-21T07:13:58;28.13;;;13.13;;
77061;SDS011;65989;51.686;5.138;2023-11-21T07:16:23;30.57;;;14.80;;
77061;SDS011;65989;51.686;5.138;2023-11-21T07:18:50;31.85;;;14.40;;
77061;SDS011;65989;51.686;5.138;2023-11-21T07:21:19;33.92;;;15.38;;
77061;SDS011;65989;51.686;5.138;2023-11-21T07:23:45;35.53;;;15.07;;
77061;SDS011;65989;51.686;5.138;2023-11-21T07:26:11;35.90;;;15.43;;
77061;SDS011;65989;51.686;5.138;2023-11-21T07:28:36;34.80;;;14.70;;
77061;SDS011;65989;51.686;5.138;2023-11-21T07:31:01;34.37;;;15.40;;
77061;SDS011;65989;51.686;5.138;2023-11-21T07:33:27;35.83;;;14.80;;
77061;SDS011;65989;51.686;5.138;2023-11-21T07:35:52;38.13;;;15.57;;
77061;SDS011;65989;51.686;5.138;2023-11-21T07:38:17;42.23;;;15.80;;
77061;SDS011;65989;51.686;5.138;2023-11-21T07:40:43;33.30;;;15.20;;
77061;SDS011;65989;51.686;5.138;2023-11-21T07:43:08;35.43;;;15.43;;
77061;SDS011;65989;51.686;5.138;2023-11-21T07:45:34;43.38;;;16.23;;
77061;SDS011;65989;51.686;5.138;2023-11-21T07:47:59;38.63;;;15.30;;
77061;SDS011;65989;51.686;5.138;2023-11-21T07:50:25;39.53;;;16.05;;
77061;SDS011;65989;51.686;5.138;2023-11-21T07:52:51;41.43;;;15.87;;
77061;SDS011;65989;51.686;5.138;2023-11-21T07:55:19;36.38;;;15.55;;
77061;SDS011;65989;51.686;5.138;2023-11-21T07:57:44;37.57;;;15.30;;
77061;SDS011;65989;51.686;5.138;2023-11-21T08:00:10;38.43;;;14.60;;
77061;SDS011;65989;51.686;5.138;2023-11-21T08:02:37;35.78;;;14.10;;
77061;SDS011;65989;51.686;5.138;2023-11-21T08:05:02;36.00;;;14.53;;
77061;SDS011;65989;51.686;5.138;2023-11-21T08:07:27;37.97;;;14.40;;
77061;SDS011;65989;51.686;5.138;2023-11-21T08:09:53;36.60;;;15.07;;
77061;SDS011;65989;51.686;5.138;2023-11-21T08:12:18;41.05;;;15.07;;
77061;SDS011;65989;51.686;5.138;2023-11-21T08:14:45;39.35;;;15.98;;
77061;SDS011;65989;51.686;5.138;2023-11-21T08:17:10;36.27;;;15.30;;
77061;SDS011;65989;51.686;5.138;2023-11-21T08:19:35;40.80;;;15.27;;
77061;SDS011;65989;51.686;5.138;2023-11-21T08:22:02;36.33;;;15.23;;
77061;SDS011;65989;51.686;5.138;2023-11-21T08:24:27;41.10;;;16.23;;
77061;SDS011;65989;51.686;5.138;2023-11-21T08:26:52;38.17;;;13.80;;
77061;SDS011;65989;51.686;5.138;2023-11-21T08:29:19;35.35;;;15.38;;
77061;SDS011;65989;51.686;5.138;2023-11-21T08:31:44;38.97;;;15.03;;
77061;SDS011;65989;51.686;5.138;2023-11-21T08:34:12;35.40;;;14.45;;
77061;SDS011;65989;51.686;5.138;2023-11-21T08:36:40;37.17;;;14.10;;
77061;SDS011;65989;51.686;5.138;2023-11-21T08:39:06;29.65;;;12.65;;
77061;SDS011;65989;51.686;5.138;2023-11-21T08:41:31;27.40;;;11.13;;
77061;SDS011;65989;51.686;5.138;2023-11-21T08:43:56;25.30;;;11.10;;
77061;SDS011;65989;51.686;5.138;2023-11-21T08:46:23;26.08;;;11.52;;
77061;SDS011;65989;51.686;5.138;2023-11-21T08:48:52;23.85;;;10.05;;
77061;SDS011;65989;51.686;5.138;2023-11-21T08:51:17;23.37;;;10.43;;
77061;SDS011;65989;51.686;5.138;2023-11-21T08:53:43;25.63;;;9.80;;
77061;SDS011;65989;51.686;5.138;2023-11-21T08:56:12;25.50;;;10.33;;
77061;SDS011;65989;51.686;5.138;2023-11-21T08:58:37;19.05;;;9.50;;
77061;SDS011;65989;51.686;5.138;2023-11-21T09:01:02;20.60;;;9.17;;
77061;SDS011;65989;51.686;5.138;2023-11-21T09:03:28;19.85;;;8.85;;
77061;SDS011;65989;51.686;5.138;2023-11-21T09:05:53;18.60;;;8.97;;
77061;SDS011;65989;51.686;5.138;2023-11-21T09:08:18;24.27;;;9.30;;
77061;SDS011;65989;51.686;5.138;2023-11-21T09:10:44;18.57;;;8.43;;
77061;SDS011;65989;51.686;5.138;2023-11-21T09:13:12;19.33;;;8.82;;
77061;SDS011;65989;51.686;5.138;2023-11-21T09:15:37;17.77;;;8.60;;
77061;SDS011;65989;51.686;5.138;2023-11-21T09:18:02;18.47;;;9.40;;
77061;SDS011;65989;51.686;5.138;2023-11-21T09:20:28;21.20;;;9.67;;
77061;SDS011;65989;51.686;5.138;2023-11-21T09:22:53;18.17;;;9.47;;
77061;SDS011;65989;51.686;5.138;2023-11-21T09:25:20;23.83;;;10.10;;
77061;SDS011;65989;51.686;5.138;2023-11-21T09:27:46;20.27;;;9.95;;
77061;SDS011;65989;51.686;5.138;2023-11-21T09:30:12;19.37;;;9.67;;
77061;SDS011;65989;51.686;5.138;2023-11-21T09:32:39;15.90;;;8.75;;
77061;SDS011;65989;51.686;5.138;2023-11-21T09:35:05;15.50;;;7.68;;
77061;SDS011;65989;51.686;5.138;2023-11-21T09:37:33;15.02;;;7.38;;
77061;SDS011;65989;51.686;5.138;2023-11-21T09:39:58;14.17;;;7.67;;
77061;SDS011;65989;51.686;5.138;2023-11-21T09:42:30;14.77;;;8.20;;
77061;SDS011;65989;51.686;5.138;2023-11-21T09:47:26;13.55;;;7.93;;
77061;SDS011;65989;51.686;5.138;2023-11-21T09:49:52;16.13;;;8.40;;
77061;SDS011;65989;51.686;5.138;2023-11-21T09:52:22;17.08;;;8.27;;
77061;SDS011;65989;51.686;5.138;2023-11-21T09:54:50;17.50;;;8.25;;
77061;SDS011;65989;51.686;5.138;2023-11-21T09:57:15;14.23;;;8.13;;
77061;SDS011;65989;51.686;5.138;2023-11-21T09:59:41;17.23;;;8.83;;
77061;SDS011;65989;51.686;5.138;2023-11-21T10:02:07;15.60;;;8.38;;
77061;SDS011;65989;51.686;5.138;2023-11-21T10:04:35;19.93;;;8.70;;
77061;SDS011;65989;51.686;5.138;2023-11-21T10:07:01;16.37;;;8.10;;
77061;SDS011;65989;51.686;5.138;2023-11-21T10:09:28;15.32;;;8.35;;
77061;SDS011;65989;51.686;5.138;2023-11-21T10:11:54;15.10;;;8.00;;
77061;SDS011;65989;51.686;5.138;2023-11-21T10:14:21;20.83;;;12.30;;
77061;SDS011;65989;51.686;5.138;2023-11-21T10:16:49;20.20;;;9.77;;
77061;SDS011;65989;51.686;5.138;2023-11-21T10:19:15;16.73;;;8.90;;
77061;SDS011;65989;51.686;5.138;2023-11-21T10:21:42;18.52;;;9.65;;
77061;SDS011;65989;51.686;5.138;2023-11-21T10:24:07;17.30;;;9.83;;
77061;SDS011;65989;51.686;5.138;2023-11-21T10:26:32;16.73;;;8.73;;
77061;SDS011;65989;51.686;5.138;2023-11-21T10:28:59;17.10;;;8.67;;
77061;SDS011;65989;51.686;5.138;2023-11-21T10:31:27;15.63;;;8.40;;
77061;SDS011;65989;51.686;5.138;2023-11-21T10:33:53;19.10;;;9.02;;
77061;SDS011;65989;51.686;5.138;2023-11-21T10:36:28;16.50;;;8.37;;
77061;SDS011;65989;51.686;5.138;2023-11-21T10:38:53;15.77;;;7.80;;
77061;SDS011;65989;51.686;5.138;2023-11-21T10:41:19;16.43;;;8.30;;
77061;SDS011;65989;51.686;5.138;2023-11-21T10:43:48;15.68;;;7.60;;
77061;SDS011;65989;51.686;5.138;2023-11-21T10:46:14;11.55;;;6.82;;
77061;SDS011;65989;51.686;5.138;2023-11-21T10:48:42;12.85;;;6.25;;
77061;SDS011;65989;51.686;5.138;2023-11-21T10:51:08;11.95;;;6.82;;
77061;SDS011;65989;51.686;5.138;2023-11-21T10:53:34;10.77;;;6.00;;
77061;SDS011;65989;51.686;5.138;2023-11-21T10:56:05;11.60;;;5.93;;
77061;SDS011;65989;51.686;5.138;2023-11-21T10:58:31;11.32;;;5.57;;
77061;SDS011;65989;51.686;5.138;2023-11-21T11:00:57;13.32;;;6.07;;
77061;SDS011;65989;51.686;5.138;2023-11-21T11:03:25;11.33;;;6.17;;
77061;SDS011;65989;51.686;5.138;2023-11-21T11:05:51;11.32;;;5.82;;
77061;SDS011;65989;51.686;5.138;2023-11-21T11:08:18;12.43;;;6.50;;
77061;SDS011;65989;51.686;5.138;2023-11-21T11:10:45;11.17;;;5.70;;
77061;SDS011;65989;51.686;5.138;2023-11-21T11:13:11;12.30;;;6.10;;
77061;SDS011;65989;51.686;5.138;2023-11-21T11:15:40;11.60;;;6.25;;
77061;SDS011;65989;51.686;5.138;2023-11-21T11:18:05;12.47;;;6.03;;
77061;SDS011;65989;51.686;5.138;2023-11-21T11:20:35;12.45;;;6.28;;
77061;SDS011;65989;51.686;5.138;2023-11-21T11:28:29;13.02;;;6.43;;
77061;SDS011;65989;51.686;5.138;2023-11-21T11:31:05;13.35;;;6.80;;
77061;SDS011;65989;51.686;5.138;2023-11-21T11:33:36;12.10;;;6.53;;
77061;SDS011;65989;51.686;5.138;2023-11-21T11:36:08;15.52;;;7.30;;
77061;SDS011;65989;51.686;5.138;2023-11-21T11:38:36;19.17;;;8.20;;
77061;SDS011;65989;51.686;5.138;2023-11-21T11:41:02;13.98;;;7.55;;
77061;SDS011;65989;51.686;5.138;2023-11-21T11:43:30;13.60;;;7.43;;
77061;SDS011;65989;51.686;5.138;2023-11-21T11:45:58;16.70;;;7.72;;
77061;SDS011;65989;51.686;5.138;2023-11-21T11:48:28;16.67;;;7.97;;
77061;SDS011;65989;51.686;5.138;2023-11-21T11:53:40;15.07;;;8.10;;
77061;SDS011;65989;51.686;5.138;2023-11-21T11:58:47;19.00;;;9.20;;
77061;SDS011;65989;51.686;5.138;2023-11-21T12:01:13;17.63;;;8.33;;
77061;SDS011;65989;51.686;5.138;2023-11-21T12:03:38;22.20;;;10.20;;
77061;SDS011;65989;51.686;5.138;2023-11-21T12:06:04;16.45;;;9.43;;
77061;SDS011;65989;51.686;5.138;2023-11-21T12:08:31;21.17;;;10.20;;
77061;SDS011;65989;51.686;5.138;2023-11-21T12:10:57;19.55;;;10.10;;
77061;SDS011;65989;51.686;5.138;2023-11-21T12:13:23;18.88;;;10.52;;
77061;SDS011;65989;51.686;5.138;2023-11-21T12:15:48;16.13;;;8.37;;
77061;SDS011;65989;51.686;5.138;2023-11-21T12:18:14;16.47;;;8.10;;
77061;SDS011;65989;51.686;5.138;2023-11-21T12:20:39;13.47;;;7.30;;
77061;SDS011;65989;51.686;5.138;2023-11-21T12:23:06;12.70;;;7.15;;
77061;SDS011;65989;51.686;5.138;2023-11-21T12:25:31;14.70;;;6.80;;
77061;SDS011;65989;51.686;5.138;2023-11-21T12:27:58;13.77;;;7.00;;
77061;SDS011;65989;51.686;5.138;2023-11-21T12:30:27;15.07;;;7.85;;
77061;SDS011;65989;51.686;5.138;2023-11-21T12:32:59;16.52;;;7.07;;
77061;SDS011;65989;51.686;5.138;2023-11-21T12:35:25;15.23;;;7.03;;
77061;SDS011;65989;51.686;5.138;2023-11-21T12:37:51;13.32;;;6.63;;
77061;SDS011;65989;51.686;5.138;2023-11-21T12:40:17;13.23;;;6.80;;
77061;SDS011;65989;51.686;5.138;2023-11-21T12:42:43;13.30;;;6.03;;
77061;SDS011;65989;51.686;5.138;2023-11-21T12:47:41;14.98;;;6.82;;
77061;SDS011;65989;51.686;5.138;2023-11-21T12:50:06;16.10;;;7.82;;
77061;SDS011;65989;51.686;5.138;2023-11-21T12:52:39;16.53;;;8.00;;
77061;SDS011;65989;51.686;5.138;2023-11-21T12:55:04;18.42;;;8.57;;
77061;SDS011;65989;51.686;5.138;2023-11-21T12:57:32;18.23;;;9.50;;
77061;SDS011;65989;51.686;5.138;2023-11-21T12:59:58;22.27;;;10.73;;
77061;SDS011;65989;51.686;5.138;2023-11-21T13:02:29;18.13;;;9.60;;
77061;SDS011;65989;51.686;5.138;2023-11-21T13:04:56;19.73;;;10.40;;
77061;SDS011;65989;51.686;5.138;2023-11-21T13:07:23;22.00;;;10.57;;
77061;SDS011;65989;51.686;5.138;2023-11-21T13:09:51;22.60;;;10.87;;
77061;SDS011;65989;51.686;5.138;2023-11-21T13:12:17;19.25;;;9.80;;
77061;SDS011;65989;51.686;5.138;2023-11-21T13:14:45;20.67;;;9.82;;
77061;SDS011;65989;51.686;5.138;2023-11-21T13:17:11;19.08;;;10.32;;
77061;SDS011;65989;51.686;5.138;2023-11-21T13:19:37;22.60;;;10.95;;
77061;SDS011;65989;51.686;5.138;2023-11-21T13:22:02;19.90;;;10.40;;
77061;SDS011;65989;51.686;5.138;2023-11-21T13:24:29;17.93;;;9.17;;
77061;SDS011;65989;51.686;5.138;2023-11-21T13:26:54;19.73;;;9.70;;
77061;SDS011;65989;51.686;5.138;2023-11-21T13:29:20;18.90;;;9.80;;
77061;SDS011;65989;51.686;5.138;2023-11-21T13:31:45;21.42;;;11.00;;
77061;SDS011;65989;51.686;5.138;2023-11-21T13:34:11;20.33;;;10.77;;
77061;SDS011;65989;51.686;5.138;2023-11-21T13:36:39;16.92;;;9.00;;
77061;SDS011;65989;51.686;5.138;2023-11-21T13:39:07;17.08;;;8.88;;
77061;SDS011;65989;51.686;5.138;2023-11-21T13:41:36;19.15;;;9.30;;
77061;SDS011;65989;51.686;5.138;2023-11-21T13:44:03;19.98;;;10.27;;
77061;SDS011;65989;51.686;5.138;2023-11-21T13:46:34;14.83;;;7.90;;
77061;SDS011;65989;51.686;5.138;2023-11-21T13:49:02;16.75;;;8.65;;
77061;SDS011;65989;51.686;5.138;2023-11-21T13:51:27;14.60;;;7.60;;
77061;SDS011;65989;51.686;5.138;2023-11-21T13:54:02;15.03;;;7.73;;
77061;SDS011;65989;51.686;5.138;2023-11-21T13:56:30;16.70;;;7.40;;
77061;SDS011;65989;51.686;5.138;2023-11-21T13:58:56;17.67;;;8.52;;
77061;SDS011;65989;51.686;5.138;2023-11-21T14:01:28;19.00;;;8.90;;
77061;SDS011;65989;51.686;5.138;2023-11-21T14:03:57;16.20;;;7.65;;
77061;SDS011;65989;51.686;5.138;2023-11-21T14:06:27;17.47;;;8.37;;
77061;SDS011;65989;51.686;5.138;2023-11-21T14:08:59;17.20;;;9.10;;
77061;SDS011;65989;51.686;5.138;2023-11-21T14:11:30;23.70;;;10.45;;
77061;SDS011;65989;51.686;5.138;2023-11-21T14:13:55;20.90;;;10.67;;
77061;SDS011;65989;51.686;5.138;2023-11-21T14:16:20;19.93;;;10.00;;
77061;SDS011;65989;51.686;5.138;2023-11-21T14:18:46;20.63;;;9.73;;
77061;SDS011;65989;51.686;5.138;2023-11-21T14:21:23;18.60;;;9.30;;
77061;SDS011;65989;51.686;5.138;2023-11-21T14:23:49;19.73;;;9.63;;
77061;SDS011;65989;51.686;5.138;2023-11-21T14:26:14;16.73;;;8.03;;
77061;SDS011;65989;51.686;5.138;2023-11-21T14:28:41;17.92;;;9.85;;
77061;SDS011;65989;51.686;5.138;2023-11-21T14:31:07;18.60;;;9.68;;
77061;SDS011;65989;51.686;5.138;2023-11-21T14:33:32;19.40;;;9.37;;
77061;SDS011;65989;51.686;5.138;2023-11-21T14:35:58;17.50;;;8.93;;